createdAt,value
2018-07-31T00:02:09.107Z,23.46
2018-07-31T00:04:38.239Z,23.42
2018-07-31T00:07:07.252Z,23.39
2018-07-31T00:09:36.037Z,23.36
2018-07-31T00:12:04.939Z,23.27
2018-07-31T00:14:33.758Z,23.22
2018-07-31T00:17:03.063Z,23.16
2018-07-31T00:19:31.933Z,23.13
2018-07-31T00:22:01.156Z,23.08
2018-07-31T00:24:30.345Z,23.04
2018-07-31T00:26:59.398Z,23.01
2018-07-31T00:29:28.419Z,22.95
2018-07-31T00:31:57.545Z,22.92
2018-07-31T00:34:26.332Z,22.84
2018-07-31T00:36:55.301Z,22.74
2018-07-31T00:39:24.692Z,22.72
2018-07-31T00:41:53.470Z,22.65
2018-07-31T00:44:22.551Z,22.70
2018-07-31T00:46:51.556Z,22.66
2018-07-31T00:49:20.751Z,22.62
2018-07-31T00:51:49.556Z,22.59
2018-07-31T00:54:18.455Z,22.65
2018-07-31T00:56:47.466Z,22.66
2018-07-31T00:59:16.425Z,22.63
2018-07-31T01:01:45.206Z,22.63
2018-07-31T01:04:14.009Z,22.60
2018-07-31T01:06:44.100Z,22.58
2018-07-31T01:09:14.354Z,22.54
2018-07-31T01:11:43.092Z,22.53
2018-07-31T01:14:11.918Z,22.50
2018-07-31T01:16:41.881Z,22.52
2018-07-31T01:19:12.624Z,22.53
2018-07-31T01:21:42.077Z,22.56
2018-07-31T01:24:11.671Z,22.59
2018-07-31T01:26:40.468Z,22.60
2018-07-31T01:29:09.616Z,22.65
2018-07-31T01:31:38.458Z,22.69
2018-07-31T01:34:07.185Z,22.66
2018-07-31T01:36:36.195Z,22.65
2018-07-31T01:39:07.080Z,22.68
2018-07-31T01:41:35.833Z,22.70
2018-07-31T01:44:04.847Z,22.71
2018-07-31T01:46:33.826Z,22.70
2018-07-31T01:49:02.866Z,22.70
2018-07-31T01:51:31.802Z,22.69
2018-07-31T01:54:00.566Z,22.63
2018-07-31T01:56:29.614Z,22.63
2018-07-31T01:58:58.314Z,22.57
2018-07-31T02:01:27.721Z,22.52
2018-07-31T02:03:56.800Z,22.51
2018-07-31T02:06:27.698Z,22.51
2018-07-31T02:08:57.620Z,22.50
2018-07-31T02:11:26.410Z,22.50
2018-07-31T02:13:55.263Z,22.50
2018-07-31T02:16:24.557Z,22.48
2018-07-31T02:18:53.633Z,22.47
2018-07-31T02:21:22.719Z,22.44
2018-07-31T02:23:51.485Z,22.43
2018-07-31T02:26:20.336Z,22.42
2018-07-31T02:28:49.070Z,22.42
2018-07-31T02:31:18.075Z,22.42
2018-07-31T02:33:46.798Z,22.43
2018-07-31T02:36:15.859Z,22.42
2018-07-31T02:38:44.643Z,22.43
2018-07-31T02:41:13.723Z,22.41
2018-07-31T02:43:42.439Z,22.42
2018-07-31T02:46:11.530Z,22.41
2018-07-31T02:48:40.455Z,22.41
2018-07-31T02:51:09.198Z,22.39
2018-07-31T02:53:37.894Z,22.33
2018-07-31T02:56:06.829Z,22.29
2018-07-31T02:58:35.861Z,22.26
2018-07-31T03:01:04.628Z,22.26
2018-07-31T03:03:33.498Z,22.26
2018-07-31T03:06:02.510Z,22.24
2018-07-31T03:08:31.427Z,22.24
2018-07-31T03:11:00.114Z,22.21
2018-07-31T03:13:29.200Z,22.18
2018-07-31T03:15:58.564Z,22.15
2018-07-31T03:18:27.362Z,22.13
2018-07-31T03:20:57.343Z,22.12
2018-07-31T03:23:26.592Z,22.11
2018-07-31T03:25:55.337Z,22.09
2018-07-31T03:28:24.180Z,22.06
2018-07-31T03:30:53.357Z,22.04
2018-07-31T03:33:22.355Z,22.04
2018-07-31T03:35:51.413Z,22.04
2018-07-31T03:38:21.218Z,22.04
2018-07-31T03:40:50.389Z,22.02
2018-07-31T03:43:19.210Z,21.99
2018-07-31T03:45:47.924Z,21.95
2018-07-31T03:48:16.643Z,21.93
2018-07-31T03:50:45.740Z,21.86
2018-07-31T03:53:14.446Z,21.71
2018-07-31T03:55:43.357Z,21.66
2018-07-31T03:58:12.261Z,21.58
2018-07-31T04:00:41.306Z,21.53
2018-07-31T04:03:10.398Z,21.54
2018-07-31T04:05:39.119Z,21.55
2018-07-31T04:08:08.095Z,21.55
2018-07-31T04:10:37.187Z,21.55
2018-07-31T04:13:06.285Z,21.53
2018-07-31T04:15:35.309Z,21.50
2018-07-31T04:18:04.027Z,21.49
2018-07-31T04:20:32.793Z,21.46
2018-07-31T04:23:01.800Z,21.44
2018-07-31T04:25:30.905Z,21.38
2018-07-31T04:27:59.661Z,21.39
2018-07-31T04:30:28.980Z,21.40
2018-07-31T04:32:57.799Z,21.39
2018-07-31T04:35:26.531Z,21.37
2018-07-31T04:37:55.303Z,21.38
2018-07-31T04:40:24.384Z,21.40
2018-07-31T04:42:53.546Z,21.40
2018-07-31T04:45:22.291Z,21.39
2018-07-31T04:47:51.388Z,21.37
2018-07-31T04:50:20.139Z,21.30
2018-07-31T04:52:48.888Z,21.29
2018-07-31T04:55:17.643Z,21.29
2018-07-31T04:57:47.634Z,21.26
2018-07-31T05:00:16.330Z,21.29
2018-07-31T05:02:45.112Z,21.32
2018-07-31T05:05:13.788Z,21.30
2018-07-31T05:07:43.151Z,21.29
2018-07-31T05:10:13.543Z,21.31
2018-07-31T05:12:43.397Z,21.34
2018-07-31T05:15:12.278Z,21.40
2018-07-31T05:17:41.472Z,21.45
2018-07-31T05:20:10.977Z,21.50
2018-07-31T05:22:41.403Z,21.58
2018-07-31T05:25:10.577Z,21.68
2018-07-31T05:27:39.749Z,21.73
2018-07-31T05:30:10.610Z,21.79
2018-07-31T05:32:40.200Z,21.88
2018-07-31T05:35:10.090Z,21.98
2018-07-31T05:37:39.053Z,22.06
2018-07-31T05:40:09.047Z,22.10
2018-07-31T05:42:38.186Z,22.17
2018-07-31T05:45:07.933Z,22.27
2018-07-31T05:47:36.806Z,22.37
2018-07-31T05:50:06.144Z,22.50
2018-07-31T05:52:35.173Z,22.60
2018-07-31T05:55:03.932Z,22.65
2018-07-31T05:57:32.708Z,22.72
2018-07-31T06:00:01.514Z,22.81
2018-07-31T06:02:30.221Z,22.93
2018-07-31T06:04:58.994Z,23.02
2018-07-31T06:07:27.682Z,23.08
2018-07-31T06:09:56.980Z,23.16
2018-07-31T06:12:25.680Z,23.24
2018-07-31T06:14:54.474Z,23.31
2018-07-31T06:17:23.335Z,23.37
2018-07-31T06:19:52.026Z,23.46
2018-07-31T06:22:20.752Z,23.55
2018-07-31T06:24:50.112Z,23.62
2018-07-31T06:27:19.207Z,23.68
2018-07-31T06:29:48.958Z,23.77
2018-07-31T06:32:17.810Z,23.84
2018-07-31T06:34:47.213Z,23.90
2018-07-31T06:37:16.385Z,23.96
2018-07-31T06:39:45.613Z,24.09
2018-07-31T06:42:14.293Z,24.18
2018-07-31T06:44:43.114Z,24.22
2018-07-31T06:47:12.194Z,24.32
2018-07-31T06:49:40.871Z,24.50
2018-07-31T06:52:09.994Z,24.70
2018-07-31T06:54:39.065Z,24.88
2018-07-31T06:57:07.850Z,25.03
2018-07-31T06:59:36.588Z,25.12
2018-07-31T07:02:05.336Z,25.19
2018-07-31T07:04:34.368Z,25.23
2018-07-31T07:07:03.106Z,25.27
2018-07-31T07:09:32.135Z,25.31
2018-07-31T07:12:01.155Z,25.36
2018-07-31T07:14:30.090Z,25.35
2018-07-31T07:16:58.888Z,25.34
2018-07-31T07:19:27.732Z,25.37
2018-07-31T07:21:56.704Z,25.45
2018-07-31T07:24:25.796Z,25.49
2018-07-31T07:26:54.501Z,25.60
2018-07-31T07:29:23.458Z,25.75
2018-07-31T07:31:52.271Z,25.83
2018-07-31T07:34:21.295Z,25.84
2018-07-31T07:36:50.296Z,25.79
2018-07-31T07:39:19.026Z,25.80
2018-07-31T07:41:47.784Z,25.86
2018-07-31T07:44:16.480Z,25.92
2018-07-31T07:46:45.808Z,25.99
2018-07-31T07:49:14.500Z,26.02
2018-07-31T07:51:43.201Z,26.05
2018-07-31T07:54:12.038Z,26.05
2018-07-31T07:56:41.053Z,26.07
2018-07-31T07:59:10.082Z,26.10
2018-07-31T08:01:38.799Z,26.13
2018-07-31T08:04:08.327Z,26.18
2018-07-31T08:06:37.057Z,26.30
2018-07-31T08:09:08.243Z,26.40
2018-07-31T08:11:37.129Z,26.46
2018-07-31T08:14:05.894Z,26.53
2018-07-31T08:16:34.885Z,26.61
2018-07-31T08:19:03.633Z,26.59
2018-07-31T08:21:32.416Z,26.68
2018-07-31T08:24:01.122Z,26.77
2018-07-31T08:26:30.154Z,26.84
2018-07-31T08:28:59.266Z,26.88
2018-07-31T08:31:28.439Z,26.96
2018-07-31T08:33:57.161Z,27.04
2018-07-31T08:36:26.071Z,27.06
2018-07-31T08:38:55.020Z,27.11
2018-07-31T08:41:24.077Z,27.07
2018-07-31T08:43:52.805Z,27.04
2018-07-31T08:46:21.859Z,27.10
2018-07-31T08:48:50.581Z,27.17
2018-07-31T08:51:20.035Z,27.25
2018-07-31T08:53:48.788Z,27.34
2018-07-31T08:56:17.712Z,27.43
2018-07-31T08:58:46.659Z,27.53
2018-07-31T09:01:15.451Z,27.64
2018-07-31T09:03:44.382Z,27.76
2018-07-31T09:06:13.105Z,27.91
2018-07-31T09:08:42.412Z,28.04
2018-07-31T09:11:11.109Z,28.19
2018-07-31T09:13:40.091Z,28.22
2018-07-31T09:16:08.810Z,28.25
2018-07-31T09:18:38.294Z,28.38
2018-07-31T09:21:07.005Z,28.56
2018-07-31T09:23:36.283Z,28.86
2018-07-31T09:26:05.051Z,29.07
2018-07-31T09:28:34.598Z,29.18
2018-07-31T09:31:08.835Z,29.21
2018-07-31T09:33:37.394Z,29.29
2018-07-31T09:36:06.081Z,29.36
2018-07-31T09:38:35.180Z,29.53
2018-07-31T09:41:03.915Z,29.81
2018-07-31T09:43:32.666Z,29.95
2018-07-31T09:46:01.445Z,30.04
2018-07-31T09:48:30.156Z,30.05
2018-07-31T09:50:58.925Z,30.03
2018-07-31T09:53:27.635Z,30.15
2018-07-31T09:55:56.934Z,30.18
2018-07-31T09:58:25.714Z,30.12
2018-07-31T10:01:29.522Z,30.03
2018-07-31T10:03:59.226Z,30.04
2018-07-31T10:06:27.950Z,30.04
2018-07-31T10:08:56.893Z,30.04
2018-07-31T10:11:25.618Z,29.96
2018-07-31T10:13:54.351Z,29.96
2018-07-31T10:16:23.094Z,30.04
2018-07-31T10:18:52.197Z,30.07
2018-07-31T10:21:20.923Z,30.24
2018-07-31T10:23:49.658Z,30.33
2018-07-31T10:26:19.007Z,30.46
2018-07-31T10:28:48.342Z,30.61
2018-07-31T10:31:17.134Z,30.84
2018-07-31T10:33:45.946Z,31.27
2018-07-31T10:36:14.697Z,31.63
2018-07-31T10:38:43.397Z,31.70
2018-07-31T10:41:12.428Z,31.75
2018-07-31T10:43:41.440Z,31.65
2018-07-31T10:46:10.591Z,31.68
2018-07-31T10:48:39.279Z,32.00
2018-07-31T10:51:08.035Z,32.43
2018-07-31T10:53:36.779Z,32.85
2018-07-31T10:56:05.517Z,33.18
2018-07-31T10:58:34.890Z,33.40
2018-07-31T11:01:03.571Z,33.55
2018-07-31T11:03:32.612Z,33.76
2018-07-31T11:06:01.346Z,33.96
2018-07-31T11:08:30.326Z,34.10
2018-07-31T11:10:59.368Z,34.31
2018-07-31T11:13:28.087Z,34.34
2018-07-31T11:15:57.459Z,34.46
2018-07-31T11:18:26.525Z,34.64
2018-07-31T11:20:55.856Z,34.79
2018-07-31T11:23:24.825Z,34.85
2018-07-31T11:25:53.538Z,34.90
2018-07-31T11:28:22.631Z,35.02
2018-07-31T11:30:51.328Z,35.04
2018-07-31T11:33:20.097Z,35.03
2018-07-31T11:35:48.834Z,34.63
2018-07-31T11:38:17.589Z,34.50
2018-07-31T11:40:46.321Z,34.56
2018-07-31T11:43:15.111Z,34.28
2018-07-31T11:45:44.588Z,34.30
2018-07-31T11:48:13.258Z,34.25
2018-07-31T11:50:42.227Z,33.89
2018-07-31T11:53:10.994Z,33.31
2018-07-31T11:55:39.976Z,32.99
2018-07-31T11:58:08.704Z,33.21
2018-07-31T12:00:38.392Z,33.53
2018-07-31T12:03:07.083Z,33.94
2018-07-31T12:05:36.739Z,34.15
2018-07-31T12:08:05.510Z,34.03
2018-07-31T12:10:38.344Z,33.66
2018-07-31T12:13:07.785Z,33.16
2018-07-31T12:15:49.555Z,32.89
2018-07-31T12:18:18.611Z,32.48
2018-07-31T12:20:47.720Z,32.13
2018-07-31T12:23:16.834Z,31.15
2018-07-31T12:25:45.988Z,29.51
2018-07-31T12:28:15.602Z,28.69
2018-07-31T12:30:44.589Z,28.45
2018-07-31T12:33:14.161Z,28.37
2018-07-31T12:35:43.538Z,28.65
2018-07-31T12:38:12.828Z,29.04
2018-07-31T12:40:41.604Z,29.19
2018-07-31T12:43:10.313Z,29.25
2018-07-31T12:45:39.647Z,29.44
2018-07-31T12:48:08.583Z,29.66
2018-07-31T12:50:37.429Z,29.80
2018-07-31T12:53:06.414Z,29.79
2018-07-31T12:55:35.208Z,29.91
2018-07-31T12:58:03.908Z,29.80
2018-07-31T13:00:32.621Z,29.65
2018-07-31T13:03:01.415Z,29.36
2018-07-31T13:05:30.158Z,28.87
2018-07-31T13:07:59.196Z,28.89
2018-07-31T13:10:27.982Z,29.08
2018-07-31T13:12:56.717Z,29.13
2018-07-31T13:15:26.243Z,29.32
2018-07-31T13:17:55.208Z,29.66
2018-07-31T13:20:23.944Z,29.75
2018-07-31T13:22:52.721Z,29.89
2018-07-31T13:25:21.429Z,29.85
2018-07-31T13:27:51.099Z,30.02
2018-07-31T13:30:19.813Z,30.09
2018-07-31T13:32:48.517Z,30.11
2018-07-31T13:35:17.334Z,30.05
2018-07-31T13:37:46.067Z,30.13
2018-07-31T13:40:14.831Z,30.15
2018-07-31T13:42:43.538Z,30.26
2018-07-31T13:45:12.279Z,30.26
2018-07-31T13:47:41.016Z,30.54
2018-07-31T13:50:09.795Z,30.72
2018-07-31T13:52:39.116Z,30.88
2018-07-31T13:55:08.221Z,30.98
2018-07-31T13:57:37.362Z,30.99
2018-07-31T14:00:06.622Z,30.96
2018-07-31T14:02:35.450Z,31.02
2018-07-31T14:05:04.180Z,30.99
2018-07-31T14:07:33.019Z,31.09
2018-07-31T14:10:02.060Z,31.03
2018-07-31T14:12:30.747Z,31.12
2018-07-31T14:14:59.568Z,31.27
2018-07-31T14:17:28.359Z,31.08
2018-07-31T14:19:57.111Z,30.91
2018-07-31T14:22:26.604Z,30.95
2018-07-31T14:24:55.957Z,31.14
2018-07-31T14:27:24.709Z,31.17
2018-07-31T14:29:54.094Z,31.10
2018-07-31T14:32:23.026Z,31.02
2018-07-31T14:34:51.846Z,30.87
2018-07-31T14:37:20.837Z,30.87
2018-07-31T14:39:50.276Z,31.08
2018-07-31T14:42:19.023Z,31.31
2018-07-31T14:44:48.061Z,31.18
2018-07-31T14:47:16.829Z,31.23
2018-07-31T14:49:45.653Z,31.32
2018-07-31T14:52:14.395Z,31.31
2018-07-31T14:54:43.161Z,31.36
2018-07-31T14:57:12.282Z,31.55
2018-07-31T14:59:40.966Z,31.63
2018-07-31T15:02:09.741Z,31.52
2018-07-31T15:04:38.438Z,31.45
2018-07-31T15:07:07.185Z,31.50
2018-07-31T15:09:36.220Z,31.44
2018-07-31T15:12:05.275Z,31.36
2018-07-31T15:14:34.539Z,31.17
2018-07-31T15:17:03.863Z,31.23
2018-07-31T15:19:32.562Z,31.29
2018-07-31T15:22:01.557Z,31.28
2018-07-31T15:24:30.242Z,31.20
2018-07-31T15:26:59.207Z,31.24
2018-07-31T15:29:27.957Z,31.25
2018-07-31T15:31:57.332Z,31.28
2018-07-31T15:34:26.027Z,31.22
2018-07-31T15:36:55.467Z,31.14
2018-07-31T15:39:24.381Z,31.02
2018-07-31T15:41:53.456Z,30.93
2018-07-31T15:44:22.209Z,30.84
2018-07-31T15:46:51.611Z,30.93
2018-07-31T15:49:20.631Z,30.91
2018-07-31T15:51:49.454Z,30.98
2018-07-31T15:54:18.899Z,30.93
2018-07-31T15:56:47.589Z,31.06
2018-07-31T15:59:16.350Z,30.97
2018-07-31T16:01:45.150Z,30.58
2018-07-31T16:04:14.052Z,30.42
2018-07-31T16:06:43.111Z,30.21
2018-07-31T16:09:12.534Z,30.25
2018-07-31T16:11:41.458Z,30.27
2018-07-31T16:14:10.587Z,30.31
2018-07-31T16:16:39.384Z,30.31
2018-07-31T16:19:08.498Z,30.30
2018-07-31T16:21:38.157Z,30.11
2018-07-31T16:24:06.936Z,30.16
2018-07-31T16:26:36.620Z,29.94
2018-07-31T16:29:05.908Z,29.96
2018-07-31T16:31:34.921Z,29.81
2018-07-31T16:34:03.976Z,29.63
2018-07-31T16:36:32.730Z,29.59
2018-07-31T16:39:01.805Z,29.67
2018-07-31T16:41:30.899Z,29.76
2018-07-31T16:43:59.636Z,29.66
2018-07-31T16:46:28.578Z,29.55
2018-07-31T16:48:57.356Z,29.52
2018-07-31T16:51:26.404Z,29.42
2018-07-31T16:53:55.138Z,29.19
2018-07-31T16:56:23.867Z,29.10
2018-07-31T16:58:53.087Z,29.00
2018-07-31T17:01:22.214Z,29.06
2018-07-31T17:03:51.231Z,29.11
2018-07-31T17:06:20.233Z,29.09
2018-07-31T17:08:48.994Z,28.93
2018-07-31T17:11:18.338Z,28.94
2018-07-31T17:13:47.371Z,28.83
2018-07-31T17:16:16.098Z,28.72
2018-07-31T17:18:45.071Z,28.77
2018-07-31T17:21:13.832Z,28.84
2018-07-31T17:23:42.558Z,28.72
2018-07-31T17:26:11.623Z,28.65
2018-07-31T17:28:40.689Z,28.57
2018-07-31T17:31:09.447Z,28.53
2018-07-31T17:33:38.457Z,28.50
2018-07-31T17:36:07.232Z,28.40
2018-07-31T17:38:35.981Z,28.31
2018-07-31T17:41:04.897Z,28.23
2018-07-31T17:43:33.894Z,28.15
2018-07-31T17:46:02.623Z,28.03
2018-07-31T17:48:31.560Z,28.00
2018-07-31T17:51:00.719Z,27.98
2018-07-31T17:53:29.410Z,27.97
2018-07-31T17:55:58.210Z,27.98
2018-07-31T17:58:27.287Z,27.96
2018-07-31T18:00:56.311Z,27.85
2018-07-31T18:03:25.040Z,27.74
2018-07-31T18:05:54.154Z,27.69
2018-07-31T18:08:22.892Z,27.65
2018-07-31T18:10:51.639Z,27.58
2018-07-31T18:13:20.535Z,27.47
2018-07-31T18:15:49.605Z,27.41
2018-07-31T18:18:19.001Z,27.30
2018-07-31T18:20:48.039Z,27.17
2018-07-31T18:23:16.784Z,26.97
2018-07-31T18:25:45.497Z,26.87
2018-07-31T18:28:14.257Z,26.73
2018-07-31T18:30:43.055Z,26.56
2018-07-31T18:33:12.021Z,26.33
2018-07-31T18:35:40.814Z,26.25
2018-07-31T18:38:10.306Z,26.19
2018-07-31T18:40:39.722Z,26.10
2018-07-31T18:43:08.413Z,26.05
2018-07-31T18:45:37.183Z,26.00
2018-07-31T18:48:05.967Z,25.91
2018-07-31T18:50:34.950Z,25.86
2018-07-31T18:53:03.646Z,25.78
2018-07-31T18:55:32.514Z,25.70
2018-07-31T18:58:01.566Z,25.68
2018-07-31T19:00:30.267Z,25.59
2018-07-31T19:02:59.444Z,25.54
2018-07-31T19:05:28.211Z,25.44
2018-07-31T19:07:56.969Z,25.32
2018-07-31T19:10:26.307Z,25.27
2018-07-31T19:12:55.637Z,25.17
2018-07-31T19:15:24.597Z,24.99
2018-07-31T19:17:53.388Z,24.89
2018-07-31T19:20:22.135Z,24.78
2018-07-31T19:22:50.963Z,24.65
2018-07-31T19:25:19.677Z,24.60
2018-07-31T19:27:48.428Z,24.51
2018-07-31T19:30:17.532Z,24.41
2018-07-31T19:32:46.790Z,24.34
2018-07-31T19:35:21.734Z,24.19
2018-07-31T19:37:50.771Z,24.21
2018-07-31T19:40:19.836Z,24.18
2018-07-31T19:42:48.586Z,24.15
2018-07-31T19:45:18.474Z,24.12
2018-07-31T19:47:47.910Z,24.06
2018-07-31T19:50:16.851Z,23.97
2018-07-31T19:52:46.060Z,23.89
2018-07-31T19:55:14.818Z,23.83
2018-07-31T19:57:43.544Z,23.83
2018-07-31T20:00:12.235Z,23.81
2018-07-31T20:02:41.488Z,23.77
2018-07-31T20:05:10.172Z,23.70
2018-07-31T20:07:39.080Z,23.68
2018-07-31T20:10:08.005Z,23.64
2018-07-31T20:12:37.084Z,23.66
2018-07-31T20:15:05.901Z,23.65
2018-07-31T20:17:34.910Z,23.59
2018-07-31T20:20:04.020Z,23.54
2018-07-31T20:22:32.750Z,23.40
2018-07-31T20:25:01.650Z,23.33
2018-07-31T20:27:30.442Z,23.28
2018-07-31T20:29:59.085Z,23.24
2018-07-31T20:32:28.115Z,23.19
2018-07-31T20:34:57.104Z,23.15
2018-07-31T20:37:25.885Z,23.10
2018-07-31T20:39:55.513Z,23.05
2018-07-31T20:42:24.926Z,23.02
2018-07-31T20:44:53.670Z,22.97
2018-07-31T20:47:22.361Z,22.89
2018-07-31T20:49:51.110Z,22.82
2018-07-31T20:52:20.396Z,22.77
2018-07-31T20:54:49.554Z,22.79
2018-07-31T20:57:18.619Z,22.78
2018-07-31T20:59:47.419Z,22.74
2018-07-31T21:02:16.659Z,22.72
2018-07-31T21:04:45.690Z,22.72
2018-07-31T21:07:14.454Z,22.69
2018-07-31T21:09:43.207Z,22.65
2018-07-31T21:12:11.937Z,22.64
2018-07-31T21:14:40.934Z,22.61
2018-07-31T21:17:09.698Z,22.58
2018-07-31T21:19:38.668Z,22.52
2018-07-31T21:22:07.825Z,22.46
2018-07-31T21:24:36.521Z,22.40
2018-07-31T21:27:05.280Z,22.35
2018-07-31T21:29:34.038Z,22.32
2018-07-31T21:32:03.091Z,22.29
2018-07-31T21:34:31.884Z,22.26
2018-07-31T21:37:00.636Z,22.23
2018-07-31T21:39:29.783Z,22.17
2018-07-31T21:41:58.621Z,22.13
2018-07-31T21:44:27.683Z,22.05
2018-07-31T21:46:56.384Z,21.99
2018-07-31T21:49:25.196Z,21.91
2018-07-31T21:51:54.234Z,21.84
2018-07-31T21:54:23.286Z,21.76
2018-07-31T21:56:52.761Z,21.72
2018-07-31T21:59:21.779Z,21.66
2018-07-31T22:01:50.537Z,21.60
2018-07-31T22:04:19.784Z,21.51
2018-07-31T22:06:48.829Z,21.46
2018-07-31T22:09:20.628Z,21.41
2018-07-31T22:11:49.684Z,21.37
2018-07-31T22:14:19.178Z,21.30
2018-07-31T22:16:48.464Z,21.26
2018-07-31T22:19:18.025Z,21.19
2018-07-31T22:21:47.020Z,21.15
2018-07-31T22:24:16.412Z,21.13
2018-07-31T22:26:45.255Z,21.10
2018-07-31T22:29:14.304Z,21.07
2018-07-31T22:31:43.618Z,21.00
2018-07-31T22:34:12.450Z,20.95
2018-07-31T22:36:41.201Z,20.90
2018-07-31T22:39:11.272Z,20.85
2018-07-31T22:41:40.379Z,20.82
2018-07-31T22:44:09.504Z,20.78
2018-07-31T22:46:38.287Z,20.74
2018-07-31T22:49:07.452Z,20.70
2018-07-31T22:51:36.972Z,20.69
2018-07-31T22:54:06.023Z,20.69
2018-07-31T22:56:35.059Z,20.65
2018-07-31T22:59:03.838Z,20.61
2018-07-31T23:01:32.954Z,20.58
2018-07-31T23:04:01.695Z,20.52
2018-07-31T23:06:31.010Z,20.47
2018-07-31T23:09:00.067Z,20.44
2018-07-31T23:11:28.763Z,20.38
2018-07-31T23:13:57.679Z,20.37
2018-07-31T23:16:26.946Z,20.30
2018-07-31T23:18:56.136Z,20.23
2018-07-31T23:21:25.097Z,20.19
2018-07-31T23:23:53.861Z,20.13
2018-07-31T23:26:22.695Z,20.07
2018-07-31T23:28:52.166Z,20.02
2018-07-31T23:31:21.244Z,19.97
2018-07-31T23:33:50.013Z,19.92
2018-07-31T23:36:18.829Z,19.91
2018-07-31T23:38:47.787Z,19.85
2018-07-31T23:41:16.898Z,19.80
2018-07-31T23:43:46.067Z,19.76
2018-07-31T23:46:14.805Z,19.72
2018-07-31T23:48:44.209Z,19.67
2018-07-31T23:51:13.079Z,19.64
2018-07-31T23:53:42.206Z,19.57
2018-07-31T23:56:11.053Z,19.51
2018-07-31T23:58:40.145Z,19.45
